sensor_id;sensor_type;location;lat;lon;timestamp;P1;durP1;ratioP1;P2;durP2;ratioP2
60344;SDS011;46188;52.324;8.032;2023-04-24T00:02:17;1.80;;;1.20;;
60344;SDS011;46188;52.324;8.032;2023-04-24T00:04:42;4.47;;;1.40;;
60344;SDS011;46188;52.324;8.032;2023-04-24T00:07:09;4.47;;;1.90;;
60344;SDS011;46188;52.324;8.032;2023-04-24T00:09:35;2.05;;;1.50;;
60344;SDS011;46188;52.324;8.032;2023-04-24T00:12:00;1.80;;;1.40;;
60344;SDS011;46188;52.324;8.032;2023-04-24T00:14:28;2.08;;;1.58;;
60344;SDS011;46188;52.324;8.032;2023-04-24T00:16:53;2.08;;;1.60;;
60344;SDS011;46188;52.324;8.032;2023-04-24T00:19:19;2.33;;;1.60;;
60344;SDS011;46188;52.324;8.032;2023-04-24T00:21:46;2.60;;;1.58;;
60344;SDS011;46188;52.324;8.032;2023-04-24T00:24:11;2.83;;;1.90;;
60344;SDS011;46188;52.324;8.032;2023-04-24T00:26:36;2.70;;;1.63;;
60344;SDS011;46188;52.324;8.032;2023-04-24T00:29:01;2.30;;;1.60;;
60344;SDS011;46188;52.324;8.032;2023-04-24T00:31:27;1.80;;;1.50;;
60344;SDS011;46188;52.324;8.032;2023-04-24T00:33:52;1.90;;;1.50;;
60344;SDS011;46188;52.324;8.032;2023-04-24T00:36:17;3.45;;;1.80;;
60344;SDS011;46188;52.324;8.032;2023-04-24T00:38:44;2.28;;;1.77;;
60344;SDS011;46188;52.324;8.032;2023-04-24T00:41:09;4.00;;;1.92;;
60344;SDS011;46188;52.324;8.032;2023-04-24T00:43:35;3.47;;;1.98;;
60344;SDS011;46188;52.324;8.032;2023-04-24T00:46:00;2.25;;;1.88;;
60344;SDS011;46188;52.324;8.032;2023-04-24T00:48:26;2.67;;;1.75;;
60344;SDS011;46188;52.324;8.032;2023-04-24T00:50:52;1.75;;;1.40;;
60344;SDS011;46188;52.324;8.032;2023-04-24T00:53:17;2.33;;;1.90;;
60344;SDS011;46188;52.324;8.032;2023-04-24T00:55:43;3.70;;;2.17;;
60344;SDS011;46188;52.324;8.032;2023-04-24T00:58:08;2.45;;;1.67;;
60344;SDS011;46188;52.324;8.032;2023-04-24T01:00:33;2.38;;;1.75;;
60344;SDS011;46188;52.324;8.032;2023-04-24T01:03:00;2.20;;;1.60;;
60344;SDS011;46188;52.324;8.032;2023-04-24T01:05:26;3.08;;;2.05;;
60344;SDS011;46188;52.324;8.032;2023-04-24T01:07:52;3.53;;;1.90;;
60344;SDS011;46188;52.324;8.032;2023-04-24T01:10:17;2.28;;;1.70;;
60344;SDS011;46188;52.324;8.032;2023-04-24T01:12:45;4.50;;;1.92;;
60344;SDS011;46188;52.324;8.032;2023-04-24T01:15:11;2.63;;;1.92;;
60344;SDS011;46188;52.324;8.032;2023-04-24T01:17:36;4.78;;;1.80;;
60344;SDS011;46188;52.324;8.032;2023-04-24T01:20:01;2.72;;;2.10;;
60344;SDS011;46188;52.324;8.032;2023-04-24T01:22:30;2.47;;;1.45;;
60344;SDS011;46188;52.324;8.032;2023-04-24T01:24:55;3.75;;;1.52;;
60344;SDS011;46188;52.324;8.032;2023-04-24T01:27:21;2.30;;;1.50;;
60344;SDS011;46188;52.324;8.032;2023-04-24T01:29:46;2.33;;;1.50;;
60344;SDS011;46188;52.324;8.032;2023-04-24T01:32:14;3.30;;;1.30;;
60344;SDS011;46188;52.324;8.032;2023-04-24T01:34:40;2.25;;;1.60;;
60344;SDS011;46188;52.324;8.032;2023-04-24T01:37:05;3.33;;;1.48;;
60344;SDS011;46188;52.324;8.032;2023-04-24T01:39:31;2.03;;;1.40;;
60344;SDS011;46188;52.324;8.032;2023-04-24T01:41:58;2.22;;;1.30;;
60344;SDS011;46188;52.324;8.032;2023-04-24T01:44:23;2.78;;;1.55;;
60344;SDS011;46188;52.324;8.032;2023-04-24T01:46:49;3.05;;;1.15;;
60344;SDS011;46188;52.324;8.032;2023-04-24T01:49:15;2.75;;;1.55;;
60344;SDS011;46188;52.324;8.032;2023-04-24T01:51:40;4.75;;;1.67;;
60344;SDS011;46188;52.324;8.032;2023-04-24T01:54:06;3.85;;;1.65;;
60344;SDS011;46188;52.324;8.032;2023-04-24T01:56:32;2.00;;;1.33;;
60344;SDS011;46188;52.324;8.032;2023-04-24T01:58:58;2.38;;;1.20;;
60344;SDS011;46188;52.324;8.032;2023-04-24T02:01:25;2.05;;;1.20;;
60344;SDS011;46188;52.324;8.032;2023-04-24T02:03:50;3.03;;;1.40;;
60344;SDS011;46188;52.324;8.032;2023-04-24T02:06:15;3.55;;;1.30;;
60344;SDS011;46188;52.324;8.032;2023-04-24T02:08:41;2.05;;;1.50;;
60344;SDS011;46188;52.324;8.032;2023-04-24T02:11:08;1.90;;;1.23;;
60344;SDS011;46188;52.324;8.032;2023-04-24T02:13:33;2.58;;;1.45;;
60344;SDS011;46188;52.324;8.032;2023-04-24T02:15:59;4.50;;;1.42;;
60344;SDS011;46188;52.324;8.032;2023-04-24T02:18:24;3.13;;;1.60;;
60344;SDS011;46188;52.324;8.032;2023-04-24T02:20:49;2.05;;;1.40;;
60344;SDS011;46188;52.324;8.032;2023-04-24T02:23:14;1.80;;;1.23;;
60344;SDS011;46188;52.324;8.032;2023-04-24T02:25:40;2.15;;;1.45;;
60344;SDS011;46188;52.324;8.032;2023-04-24T02:28:05;2.17;;;1.30;;
60344;SDS011;46188;52.324;8.032;2023-04-24T02:30:30;2.17;;;1.52;;
60344;SDS011;46188;52.324;8.032;2023-04-24T02:32:55;3.33;;;1.77;;
60344;SDS011;46188;52.324;8.032;2023-04-24T02:35:21;2.40;;;1.75;;
60344;SDS011;46188;52.324;8.032;2023-04-24T02:37:46;2.58;;;1.80;;
60344;SDS011;46188;52.324;8.032;2023-04-24T02:40:11;3.90;;;1.75;;
60344;SDS011;46188;52.324;8.032;2023-04-24T02:42:37;2.78;;;1.63;;
60344;SDS011;46188;52.324;8.032;2023-04-24T02:45:02;3.30;;;1.70;;
60344;SDS011;46188;52.324;8.032;2023-04-24T02:47:28;2.50;;;1.70;;
60344;SDS011;46188;52.324;8.032;2023-04-24T02:49:53;1.77;;;1.50;;
60344;SDS011;46188;52.324;8.032;2023-04-24T02:52:18;3.17;;;1.50;;
60344;SDS011;46188;52.324;8.032;2023-04-24T02:54:43;3.38;;;1.70;;
60344;SDS011;46188;52.324;8.032;2023-04-24T02:57:08;3.25;;;1.70;;
60344;SDS011;46188;52.324;8.032;2023-04-24T02:59:34;2.90;;;1.90;;
60344;SDS011;46188;52.324;8.032;2023-04-24T03:01:59;2.08;;;1.35;;
60344;SDS011;46188;52.324;8.032;2023-04-24T03:04:25;2.10;;;1.67;;
60344;SDS011;46188;52.324;8.032;2023-04-24T03:06:51;2.15;;;1.58;;
60344;SDS011;46188;52.324;8.032;2023-04-24T03:09:17;2.35;;;1.45;;
60344;SDS011;46188;52.324;8.032;2023-04-24T03:11:43;2.75;;;1.55;;
60344;SDS011;46188;52.324;8.032;2023-04-24T03:14:08;2.50;;;2.00;;
60344;SDS011;46188;52.324;8.032;2023-04-24T03:16:34;2.45;;;1.75;;
60344;SDS011;46188;52.324;8.032;2023-04-24T03:18:59;2.67;;;1.55;;
60344;SDS011;46188;52.324;8.032;2023-04-24T03:21:24;2.70;;;1.70;;
60344;SDS011;46188;52.324;8.032;2023-04-24T03:23:49;3.40;;;2.13;;
60344;SDS011;46188;52.324;8.032;2023-04-24T03:26:18;4.82;;;2.03;;
60344;SDS011;46188;52.324;8.032;2023-04-24T03:28:43;3.13;;;2.15;;
60344;SDS011;46188;52.324;8.032;2023-04-24T03:31:08;3.63;;;2.20;;
60344;SDS011;46188;52.324;8.032;2023-04-24T03:33:33;3.17;;;2.28;;
60344;SDS011;46188;52.324;8.032;2023-04-24T03:35:59;3.45;;;2.85;;
60344;SDS011;46188;52.324;8.032;2023-04-24T03:38:24;4.85;;;3.08;;
60344;SDS011;46188;52.324;8.032;2023-04-24T03:40:49;4.45;;;3.45;;
60344;SDS011;46188;52.324;8.032;2023-04-24T03:43:15;4.15;;;2.90;;
60344;SDS011;46188;52.324;8.032;2023-04-24T03:45:40;3.40;;;2.67;;
60344;SDS011;46188;52.324;8.032;2023-04-24T03:48:05;4.22;;;2.90;;
60344;SDS011;46188;52.324;8.032;2023-04-24T03:50:30;4.05;;;3.65;;
60344;SDS011;46188;52.324;8.032;2023-04-24T03:52:56;5.38;;;3.30;;
60344;SDS011;46188;52.324;8.032;2023-04-24T03:55:21;5.95;;;3.03;;
60344;SDS011;46188;52.324;8.032;2023-04-24T03:57:46;6.90;;;3.92;;
60344;SDS011;46188;52.324;8.032;2023-04-24T04:00:12;5.93;;;3.97;;
60344;SDS011;46188;52.324;8.032;2023-04-24T04:02:37;5.22;;;3.90;;
60344;SDS011;46188;52.324;8.032;2023-04-24T04:05:02;4.97;;;4.43;;
60344;SDS011;46188;52.324;8.032;2023-04-24T04:07:28;5.10;;;4.20;;
60344;SDS011;46188;52.324;8.032;2023-04-24T04:09:54;5.22;;;4.50;;
60344;SDS011;46188;52.324;8.032;2023-04-24T04:12:20;5.55;;;4.85;;
60344;SDS011;46188;52.324;8.032;2023-04-24T04:14:45;7.45;;;6.22;;
60344;SDS011;46188;52.324;8.032;2023-04-24T04:17:10;7.50;;;6.38;;
60344;SDS011;46188;52.324;8.032;2023-04-24T04:19:35;9.80;;;6.53;;
60344;SDS011;46188;52.324;8.032;2023-04-24T04:22:01;8.80;;;6.88;;
60344;SDS011;46188;52.324;8.032;2023-04-24T04:24:26;10.07;;;7.45;;
60344;SDS011;46188;52.324;8.032;2023-04-24T04:26:51;11.23;;;7.38;;
60344;SDS011;46188;52.324;8.032;2023-04-24T04:29:17;9.93;;;7.82;;
60344;SDS011;46188;52.324;8.032;2023-04-24T04:31:47;10.95;;;8.18;;
60344;SDS011;46188;52.324;8.032;2023-04-24T04:34:12;11.60;;;8.65;;
60344;SDS011;46188;52.324;8.032;2023-04-24T04:36:38;12.82;;;9.05;;
60344;SDS011;46188;52.324;8.032;2023-04-24T04:39:04;10.95;;;8.45;;
60344;SDS011;46188;52.324;8.032;2023-04-24T04:41:30;11.90;;;8.25;;
60344;SDS011;46188;52.324;8.032;2023-04-24T04:43:55;9.70;;;7.82;;
60344;SDS011;46188;52.324;8.032;2023-04-24T04:46:23;9.27;;;7.75;;
60344;SDS011;46188;52.324;8.032;2023-04-24T04:48:51;9.43;;;7.75;;
60344;SDS011;46188;52.324;8.032;2023-04-24T04:51:16;10.40;;;8.38;;
60344;SDS011;46188;52.324;8.032;2023-04-24T04:53:41;11.32;;;8.57;;
60344;SDS011;46188;52.324;8.032;2023-04-24T04:56:07;12.52;;;9.57;;
60344;SDS011;46188;52.324;8.032;2023-04-24T04:58:32;12.68;;;9.70;;
60344;SDS011;46188;52.324;8.032;2023-04-24T05:00:58;12.93;;;9.25;;
60344;SDS011;46188;52.324;8.032;2023-04-24T05:03:23;10.85;;;8.73;;
60344;SDS011;46188;52.324;8.032;2023-04-24T05:05:48;12.55;;;9.10;;
60344;SDS011;46188;52.324;8.032;2023-04-24T05:08:14;13.40;;;9.80;;
60344;SDS011;46188;52.324;8.032;2023-04-24T05:10:39;12.70;;;9.32;;
60344;SDS011;46188;52.324;8.032;2023-04-24T05:13:04;15.13;;;10.43;;
60344;SDS011;46188;52.324;8.032;2023-04-24T05:15:30;16.40;;;10.98;;
60344;SDS011;46188;52.324;8.032;2023-04-24T05:17:55;14.32;;;10.63;;
60344;SDS011;46188;52.324;8.032;2023-04-24T05:20:20;14.30;;;10.68;;
60344;SDS011;46188;52.324;8.032;2023-04-24T05:22:45;12.90;;;9.48;;
60344;SDS011;46188;52.324;8.032;2023-04-24T05:25:11;14.05;;;10.60;;
60344;SDS011;46188;52.324;8.032;2023-04-24T05:27:37;11.88;;;9.98;;
60344;SDS011;46188;52.324;8.032;2023-04-24T05:30:02;13.82;;;10.63;;
60344;SDS011;46188;52.324;8.032;2023-04-24T05:32:29;14.27;;;10.32;;
60344;SDS011;46188;52.324;8.032;2023-04-24T05:34:54;12.25;;;10.02;;
60344;SDS011;46188;52.324;8.032;2023-04-24T05:37:20;12.40;;;9.52;;
60344;SDS011;46188;52.324;8.032;2023-04-24T05:39:45;16.05;;;10.85;;
60344;SDS011;46188;52.324;8.032;2023-04-24T05:42:10;12.98;;;9.85;;
60344;SDS011;46188;52.324;8.032;2023-04-24T05:44:36;15.35;;;10.57;;
60344;SDS011;46188;52.324;8.032;2023-04-24T05:47:01;18.30;;;11.63;;
60344;SDS011;46188;52.324;8.032;2023-04-24T05:49:27;18.63;;;10.35;;
60344;SDS011;46188;52.324;8.032;2023-04-24T05:51:52;15.43;;;11.80;;
60344;SDS011;46188;52.324;8.032;2023-04-24T05:54:17;17.13;;;12.30;;
60344;SDS011;46188;52.324;8.032;2023-04-24T05:56:42;14.93;;;11.43;;
60344;SDS011;46188;52.324;8.032;2023-04-24T05:59:08;18.73;;;12.23;;
60344;SDS011;46188;52.324;8.032;2023-04-24T06:01:33;18.98;;;12.10;;
60344;SDS011;46188;52.324;8.032;2023-04-24T06:03:59;17.42;;;12.50;;
60344;SDS011;46188;52.324;8.032;2023-04-24T06:06:24;18.15;;;13.02;;
60344;SDS011;46188;52.324;8.032;2023-04-24T06:08:50;20.75;;;14.40;;
60344;SDS011;46188;52.324;8.032;2023-04-24T06:11:16;21.88;;;14.90;;
60344;SDS011;46188;52.324;8.032;2023-04-24T06:13:41;22.13;;;15.00;;
60344;SDS011;46188;52.324;8.032;2023-04-24T06:16:07;22.42;;;15.50;;
60344;SDS011;46188;52.324;8.032;2023-04-24T06:18:32;22.98;;;14.45;;
60344;SDS011;46188;52.324;8.032;2023-04-24T06:20:57;18.67;;;14.35;;
60344;SDS011;46188;52.324;8.032;2023-04-24T06:23:22;21.75;;;15.27;;
60344;SDS011;46188;52.324;8.032;2023-04-24T06:25:48;20.88;;;15.35;;
60344;SDS011;46188;52.324;8.032;2023-04-24T06:28:13;21.25;;;14.85;;
60344;SDS011;46188;52.324;8.032;2023-04-24T06:30:38;23.38;;;15.52;;
60344;SDS011;46188;52.324;8.032;2023-04-24T06:33:04;20.85;;;14.50;;
60344;SDS011;46188;52.324;8.032;2023-04-24T06:35:29;19.92;;;14.65;;
60344;SDS011;46188;52.324;8.032;2023-04-24T06:37:55;19.25;;;14.10;;
60344;SDS011;46188;52.324;8.032;2023-04-24T06:40:21;21.73;;;13.65;;
60344;SDS011;46188;52.324;8.032;2023-04-24T06:42:46;22.70;;;12.98;;
60344;SDS011;46188;52.324;8.032;2023-04-24T06:45:11;22.15;;;15.25;;
60344;SDS011;46188;52.324;8.032;2023-04-24T06:47:37;22.02;;;14.68;;
60344;SDS011;46188;52.324;8.032;2023-04-24T06:50:03;20.83;;;14.25;;
60344;SDS011;46188;52.324;8.032;2023-04-24T06:52:28;21.80;;;15.23;;
60344;SDS011;46188;52.324;8.032;2023-04-24T06:55:03;22.42;;;14.85;;
60344;SDS011;46188;52.324;8.032;2023-04-24T06:57:29;23.15;;;14.82;;
60344;SDS011;46188;52.324;8.032;2023-04-24T06:59:55;26.85;;;14.15;;
60344;SDS011;46188;52.324;8.032;2023-04-24T07:02:20;19.70;;;13.35;;
60344;SDS011;46188;52.324;8.032;2023-04-24T07:04:45;20.25;;;13.63;;
60344;SDS011;46188;52.324;8.032;2023-04-24T07:07:11;18.52;;;12.63;;
60344;SDS011;46188;52.324;8.032;2023-04-24T07:09:39;18.65;;;13.35;;
60344;SDS011;46188;52.324;8.032;2023-04-24T07:12:05;18.45;;;13.38;;
60344;SDS011;46188;52.324;8.032;2023-04-24T07:14:32;17.67;;;12.73;;
60344;SDS011;46188;52.324;8.032;2023-04-24T07:16:57;22.65;;;12.50;;
60344;SDS011;46188;52.324;8.032;2023-04-24T07:19:23;19.52;;;12.45;;
60344;SDS011;46188;52.324;8.032;2023-04-24T07:21:48;18.95;;;12.75;;
60344;SDS011;46188;52.324;8.032;2023-04-24T07:24:13;16.73;;;11.73;;
60344;SDS011;46188;52.324;8.032;2023-04-24T07:26:38;18.00;;;11.90;;
60344;SDS011;46188;52.324;8.032;2023-04-24T07:29:05;17.60;;;12.32;;
60344;SDS011;46188;52.324;8.032;2023-04-24T07:31:30;21.30;;;12.13;;
60344;SDS011;46188;52.324;8.032;2023-04-24T07:33:56;17.70;;;12.63;;
60344;SDS011;46188;52.324;8.032;2023-04-24T07:36:23;18.55;;;12.20;;
60344;SDS011;46188;52.324;8.032;2023-04-24T07:38:49;17.00;;;12.18;;
60344;SDS011;46188;52.324;8.032;2023-04-24T07:41:14;17.02;;;12.20;;
60344;SDS011;46188;52.324;8.032;2023-04-24T07:43:39;16.30;;;12.73;;
60344;SDS011;46188;52.324;8.032;2023-04-24T07:46:05;19.17;;;12.32;;
60344;SDS011;46188;52.324;8.032;2023-04-24T07:48:31;16.77;;;11.73;;
60344;SDS011;46188;52.324;8.032;2023-04-24T07:50:57;17.33;;;11.02;;
60344;SDS011;46188;52.324;8.032;2023-04-24T07:53:22;15.80;;;11.38;;
60344;SDS011;46188;52.324;8.032;2023-04-24T07:55:48;18.15;;;12.07;;
60344;SDS011;46188;52.324;8.032;2023-04-24T07:58:13;16.20;;;12.35;;
60344;SDS011;46188;52.324;8.032;2023-04-24T08:00:39;17.85;;;11.88;;
60344;SDS011;46188;52.324;8.032;2023-04-24T08:03:04;18.60;;;11.80;;
60344;SDS011;46188;52.324;8.032;2023-04-24T08:05:29;16.48;;;11.80;;
60344;SDS011;46188;52.324;8.032;2023-04-24T08:07:55;18.55;;;11.50;;
60344;SDS011;46188;52.324;8.032;2023-04-24T08:10:24;18.60;;;11.93;;
60344;SDS011;46188;52.324;8.032;2023-04-24T08:12:49;16.52;;;11.50;;
60344;SDS011;46188;52.324;8.032;2023-04-24T08:15:15;18.10;;;12.65;;
60344;SDS011;46188;52.324;8.032;2023-04-24T08:17:40;14.60;;;11.45;;
60344;SDS011;46188;52.324;8.032;2023-04-24T08:20:05;16.80;;;10.63;;
60344;SDS011;46188;52.324;8.032;2023-04-24T08:22:35;21.17;;;13.30;;
60344;SDS011;46188;52.324;8.032;2023-04-24T08:25:00;14.98;;;11.52;;
60344;SDS011;46188;52.324;8.032;2023-04-24T08:27:25;15.95;;;10.32;;
60344;SDS011;46188;52.324;8.032;2023-04-24T08:29:52;14.00;;;11.20;;
60344;SDS011;46188;52.324;8.032;2023-04-24T08:32:18;14.38;;;10.82;;
60344;SDS011;46188;52.324;8.032;2023-04-24T08:34:43;12.88;;;10.07;;
60344;SDS011;46188;52.324;8.032;2023-04-24T08:37:09;13.45;;;10.27;;
60344;SDS011;46188;52.324;8.032;2023-04-24T08:39:34;13.15;;;11.00;;
60344;SDS011;46188;52.324;8.032;2023-04-24T08:41:59;11.18;;;9.60;;
60344;SDS011;46188;52.324;8.032;2023-04-24T08:44:30;13.60;;;10.32;;
60344;SDS011;46188;52.324;8.032;2023-04-24T08:47:01;11.35;;;9.35;;
60344;SDS011;46188;52.324;8.032;2023-04-24T08:49:27;12.85;;;9.85;;
60344;SDS011;46188;52.324;8.032;2023-04-24T08:51:53;15.00;;;9.55;;
60344;SDS011;46188;52.324;8.032;2023-04-24T08:54:18;11.90;;;8.98;;
60344;SDS011;46188;52.324;8.032;2023-04-24T08:56:44;11.40;;;9.10;;
60344;SDS011;46188;52.324;8.032;2023-04-24T08:59:14;12.32;;;8.80;;
60344;SDS011;46188;52.324;8.032;2023-04-24T09:01:40;11.20;;;8.93;;
60344;SDS011;46188;52.324;8.032;2023-04-24T09:04:06;11.90;;;8.75;;
60344;SDS011;46188;52.324;8.032;2023-04-24T09:06:39;15.32;;;10.55;;
60344;SDS011;46188;52.324;8.032;2023-04-24T09:09:04;10.80;;;8.60;;
60344;SDS011;46188;52.324;8.032;2023-04-24T09:11:30;10.20;;;8.15;;
60344;SDS011;46188;52.324;8.032;2023-04-24T09:13:59;10.32;;;7.95;;
60344;SDS011;46188;52.324;8.032;2023-04-24T09:16:25;12.35;;;9.02;;
60344;SDS011;46188;52.324;8.032;2023-04-24T09:18:51;10.23;;;8.40;;
60344;SDS011;46188;52.324;8.032;2023-04-24T09:21:17;12.75;;;8.27;;
60344;SDS011;46188;52.324;8.032;2023-04-24T09:23:42;11.40;;;8.98;;
60344;SDS011;46188;52.324;8.032;2023-04-24T09:26:08;9.82;;;8.80;;
60344;SDS011;46188;52.324;8.032;2023-04-24T09:28:36;13.60;;;8.02;;
60344;SDS011;46188;52.324;8.032;2023-04-24T09:31:15;9.80;;;7.85;;
60344;SDS011;46188;52.324;8.032;2023-04-24T09:33:56;8.73;;;7.80;;
60344;SDS011;46188;52.324;8.032;2023-04-24T09:36:33;9.75;;;7.95;;
60344;SDS011;46188;52.324;8.032;2023-04-24T09:39:03;11.07;;;8.52;;
60344;SDS011;46188;52.324;8.032;2023-04-24T09:41:31;10.55;;;8.13;;
60344;SDS011;46188;52.324;8.032;2023-04-24T09:43:58;9.18;;;7.70;;
60344;SDS011;46188;52.324;8.032;2023-04-24T09:46:36;11.95;;;7.93;;
60344;SDS011;46188;52.324;8.032;2023-04-24T09:49:08;12.18;;;8.07;;
60344;SDS011;46188;52.324;8.032;2023-04-24T09:51:36;9.50;;;8.18;;
60344;SDS011;46188;52.324;8.032;2023-04-24T09:54:12;12.77;;;8.38;;
60344;SDS011;46188;52.324;8.032;2023-04-24T09:56:46;9.52;;;7.75;;
60344;SDS011;46188;52.324;8.032;2023-04-24T09:59:14;10.65;;;8.50;;
60344;SDS011;46188;52.324;8.032;2023-04-24T10:01:40;10.23;;;8.75;;
60344;SDS011;46188;52.324;8.032;2023-04-24T10:06:42;8.48;;;7.65;;
60344;SDS011;46188;52.324;8.032;2023-04-24T10:09:08;8.77;;;7.85;;
60344;SDS011;46188;52.324;8.032;2023-04-24T10:11:35;9.52;;;7.40;;
60344;SDS011;46188;52.324;8.032;2023-04-24T10:14:02;7.97;;;5.18;;
60344;SDS011;46188;52.324;8.032;2023-04-24T10:16:28;6.28;;;4.50;;
60344;SDS011;46188;52.324;8.032;2023-04-24T10:18:55;8.65;;;3.45;;
60344;SDS011;46188;52.324;8.032;2023-04-24T10:21:23;4.28;;;3.47;;
60344;SDS011;46188;52.324;8.032;2023-04-24T10:23:49;6.53;;;3.75;;
60344;SDS011;46188;52.324;8.032;2023-04-24T10:26:16;3.95;;;3.10;;
60344;SDS011;46188;52.324;8.032;2023-04-24T10:28:45;4.65;;;3.65;;
60344;SDS011;46188;52.324;8.032;2023-04-24T10:31:12;5.93;;;3.53;;
60344;SDS011;46188;52.324;8.032;2023-04-24T10:33:39;4.43;;;2.72;;
60344;SDS011;46188;52.324;8.032;2023-04-24T10:36:06;6.07;;;3.10;;
60344;SDS011;46188;52.324;8.032;2023-04-24T10:38:33;4.88;;;2.60;;
60344;SDS011;46188;52.324;8.032;2023-04-24T10:41:07;4.63;;;2.90;;
60344;SDS011;46188;52.324;8.032;2023-04-24T10:43:34;4.20;;;3.20;;
60344;SDS011;46188;52.324;8.032;2023-04-24T10:46:00;3.47;;;2.50;;
60344;SDS011;46188;52.324;8.032;2023-04-24T10:48:27;3.20;;;2.28;;
60344;SDS011;46188;52.324;8.032;2023-04-24T10:50:52;4.57;;;2.55;;
60344;SDS011;46188;52.324;8.032;2023-04-24T10:53:19;2.72;;;1.90;;
60344;SDS011;46188;52.324;8.032;2023-04-24T10:55:48;2.78;;;1.95;;
60344;SDS011;46188;52.324;8.032;2023-04-24T10:58:15;2.90;;;1.90;;
60344;SDS011;46188;52.324;8.032;2023-04-24T11:00:42;3.40;;;1.92;;
60344;SDS011;46188;52.324;8.032;2023-04-24T11:03:25;3.97;;;2.05;;
60344;SDS011;46188;52.324;8.032;2023-04-24T11:05:56;5.53;;;2.10;;
60344;SDS011;46188;52.324;8.032;2023-04-24T11:08:28;4.43;;;2.05;;
60344;SDS011;46188;52.324;8.032;2023-04-24T11:10:57;4.30;;;2.20;;
60344;SDS011;46188;52.324;8.032;2023-04-24T11:13:27;3.80;;;2.28;;
60344;SDS011;46188;52.324;8.032;2023-04-24T11:21:47;2.75;;;1.40;;
60344;SDS011;46188;52.324;8.032;2023-04-24T11:24:29;6.57;;;1.33;;
60344;SDS011;46188;52.324;8.032;2023-04-24T11:29:37;3.85;;;1.40;;
60344;SDS011;46188;52.324;8.032;2023-04-24T11:32:14;5.05;;;1.70;;
60344;SDS011;46188;52.324;8.032;2023-04-24T11:37:34;8.70;;;5.28;;
60344;SDS011;46188;52.324;8.032;2023-04-24T11:40:00;9.55;;;6.13;;
60344;SDS011;46188;52.324;8.032;2023-04-24T11:42:27;14.23;;;7.75;;
60344;SDS011;46188;52.324;8.032;2023-04-24T11:44:53;13.95;;;8.55;;
60344;SDS011;46188;52.324;8.032;2023-04-24T11:47:27;12.70;;;8.05;;
60344;SDS011;46188;52.324;8.032;2023-04-24T11:49:53;17.70;;;8.80;;
60344;SDS011;46188;52.324;8.032;2023-04-24T11:52:19;17.48;;;8.85;;
60344;SDS011;46188;52.324;8.032;2023-04-24T11:54:48;14.90;;;9.00;;
60344;SDS011;46188;52.324;8.032;2023-04-24T11:57:15;14.18;;;8.52;;
60344;SDS011;46188;52.324;8.032;2023-04-24T11:59:40;11.82;;;7.85;;
60344;SDS011;46188;52.324;8.032;2023-04-24T12:02:05;12.90;;;8.10;;
60344;SDS011;46188;52.324;8.032;2023-04-24T12:04:38;13.73;;;8.68;;
60344;SDS011;46188;52.324;8.032;2023-04-24T12:07:05;10.88;;;7.68;;
60344;SDS011;46188;52.324;8.032;2023-04-24T12:12:25;10.15;;;6.85;;
60344;SDS011;46188;52.324;8.032;2023-04-24T12:14:53;12.38;;;7.72;;
60344;SDS011;46188;52.324;8.032;2023-04-24T12:17:30;12.15;;;7.45;;
60344;SDS011;46188;52.324;8.032;2023-04-24T12:20:00;10.93;;;6.57;;
60344;SDS011;46188;52.324;8.032;2023-04-24T12:22:47;13.80;;;8.23;;
60344;SDS011;46188;52.324;8.032;2023-04-24T12:25:14;15.02;;;8.45;;
60344;SDS011;46188;52.324;8.032;2023-04-24T12:27:40;13.27;;;7.47;;
60344;SDS011;46188;52.324;8.032;2023-04-24T12:30:09;10.57;;;7.32;;
60344;SDS011;46188;52.324;8.032;2023-04-24T12:32:40;11.63;;;7.30;;
60344;SDS011;46188;52.324;8.032;2023-04-24T12:35:10;12.50;;;6.88;;
60344;SDS011;46188;52.324;8.032;2023-04-24T12:37:36;14.00;;;7.60;;
60344;SDS011;46188;52.324;8.032;2023-04-24T12:40:08;13.63;;;6.70;;
60344;SDS011;46188;52.324;8.032;2023-04-24T12:42:35;12.25;;;4.85;;
60344;SDS011;46188;52.324;8.032;2023-04-24T12:45:06;9.23;;;4.70;;
60344;SDS011;46188;52.324;8.032;2023-04-24T12:47:32;9.20;;;4.55;;
60344;SDS011;46188;52.324;8.032;2023-04-24T12:49:59;12.18;;;3.88;;
60344;SDS011;46188;52.324;8.032;2023-04-24T12:52:25;13.35;;;4.88;;
60344;SDS011;46188;52.324;8.032;2023-04-24T12:54:55;7.18;;;4.45;;
60344;SDS011;46188;52.324;8.032;2023-04-24T12:57:22;10.63;;;4.53;;
60344;SDS011;46188;52.324;8.032;2023-04-24T12:59:49;6.38;;;4.43;;
60344;SDS011;46188;52.324;8.032;2023-04-24T13:02:15;10.20;;;4.60;;
60344;SDS011;46188;52.324;8.032;2023-04-24T13:04:43;13.07;;;4.43;;
60344;SDS011;46188;52.324;8.032;2023-04-24T13:07:10;9.18;;;4.93;;
60344;SDS011;46188;52.324;8.032;2023-04-24T13:09:35;14.10;;;4.95;;
60344;SDS011;46188;52.324;8.032;2023-04-24T13:12:00;14.43;;;4.90;;
60344;SDS011;46188;52.324;8.032;2023-04-24T13:14:26;14.93;;;4.78;;
60344;SDS011;46188;52.324;8.032;2023-04-24T13:16:51;11.93;;;4.60;;
60344;SDS011;46188;52.324;8.032;2023-04-24T13:19:17;10.55;;;4.88;;
60344;SDS011;46188;52.324;8.032;2023-04-24T13:21:43;8.48;;;4.93;;
60344;SDS011;46188;52.324;8.032;2023-04-24T13:24:08;7.25;;;4.70;;
60344;SDS011;46188;52.324;8.032;2023-04-24T13:26:34;11.52;;;5.15;;
60344;SDS011;46188;52.324;8.032;2023-04-24T13:29:00;9.30;;;4.50;;
60344;SDS011;46188;52.324;8.032;2023-04-24T13:31:25;8.93;;;4.65;;
60344;SDS011;46188;52.324;8.032;2023-04-24T13:33:50;14.70;;;4.95;;
60344;SDS011;46188;52.324;8.032;2023-04-24T13:36:16;12.38;;;5.80;;
60344;SDS011;46188;52.324;8.032;2023-04-24T13:38:42;11.48;;;4.55;;
60344;SDS011;46188;52.324;8.032;2023-04-24T13:41:07;10.38;;;5.05;;
60344;SDS011;46188;52.324;8.032;2023-04-24T13:43:33;11.07;;;4.50;;
60344;SDS011;46188;52.324;8.032;2023-04-24T13:45:58;10.73;;;4.50;;
60344;SDS011;46188;52.324;8.032;2023-04-24T13:48:24;13.27;;;4.88;;
60344;SDS011;46188;52.324;8.032;2023-04-24T13:50:50;15.00;;;4.85;;
60344;SDS011;46188;52.324;8.032;2023-04-24T13:53:15;8.93;;;5.50;;
60344;SDS011;46188;52.324;8.032;2023-04-24T13:55:40;11.68;;;4.72;;
60344;SDS011;46188;52.324;8.032;2023-04-24T13:58:05;12.93;;;4.43;;
60344;SDS011;46188;52.324;8.032;2023-04-24T14:00:31;15.98;;;4.38;;
60344;SDS011;46188;52.324;8.032;2023-04-24T14:02:56;6.57;;;3.40;;
60344;SDS011;46188;52.324;8.032;2023-04-24T14:05:22;9.63;;;3.97;;
60344;SDS011;46188;52.324;8.032;2023-04-24T14:07:47;8.95;;;3.70;;
60344;SDS011;46188;52.324;8.032;2023-04-24T14:10:12;5.82;;;3.33;;
60344;SDS011;46188;52.324;8.032;2023-04-24T14:12:37;6.22;;;3.10;;
60344;SDS011;46188;52.324;8.032;2023-04-24T14:15:03;6.38;;;3.20;;
60344;SDS011;46188;52.324;8.032;2023-04-24T14:17:29;10.10;;;3.92;;
60344;SDS011;46188;52.324;8.032;2023-04-24T14:19:55;6.38;;;2.70;;
60344;SDS011;46188;52.324;8.032;2023-04-24T14:22:21;6.15;;;3.13;;
60344;SDS011;46188;52.324;8.032;2023-04-24T14:24:46;6.53;;;3.35;;
60344;SDS011;46188;52.324;8.032;2023-04-24T14:27:12;6.47;;;2.72;;
60344;SDS011;46188;52.324;8.032;2023-04-24T14:29:37;12.23;;;3.85;;
60344;SDS011;46188;52.324;8.032;2023-04-24T14:32:02;7.32;;;3.30;;
60344;SDS011;46188;52.324;8.032;2023-04-24T14:34:27;7.10;;;3.72;;
60344;SDS011;46188;52.324;8.032;2023-04-24T14:36:53;5.50;;;3.10;;
60344;SDS011;46188;52.324;8.032;2023-04-24T14:39:19;4.88;;;3.20;;
60344;SDS011;46188;52.324;8.032;2023-04-24T14:41:44;5.03;;;3.33;;
60344;SDS011;46188;52.324;8.032;2023-04-24T14:44:09;7.55;;;4.05;;
60344;SDS011;46188;52.324;8.032;2023-04-24T14:46:35;4.80;;;3.25;;
60344;SDS011;46188;52.324;8.032;2023-04-24T14:49:00;10.38;;;4.28;;
60344;SDS011;46188;52.324;8.032;2023-04-24T14:51:26;7.93;;;3.78;;